createdAt,value
2022-12-10T00:01:35.645Z,15.23
2022-12-10T00:04:03.080Z,16.40
2022-12-10T00:06:32.093Z,15.70
2022-12-10T00:09:00.720Z,16.53
2022-12-10T00:11:27.915Z,16.93
2022-12-10T00:13:55.311Z,17.27
2022-12-10T00:16:24.393Z,20.83
2022-12-10T00:18:52.030Z,22.70
2022-12-10T00:21:21.286Z,19.87
2022-12-10T00:23:48.476Z,18.30
2022-12-10T00:26:26.129Z,18.70
2022-12-10T00:28:54.081Z,17.87
2022-12-10T00:31:39.537Z,20.00
2022-12-10T00:34:07.939Z,18.37
2022-12-10T00:36:45.698Z,16.27
2022-12-10T00:39:14.495Z,16.90
2022-12-10T00:41:41.610Z,16.23
2022-12-10T00:44:08.794Z,16.50
2022-12-10T00:46:35.950Z,16.80
2022-12-10T00:49:04.048Z,17.10
2022-12-10T00:51:31.235Z,18.27
2022-12-10T00:53:59.497Z,18.43
2022-12-10T00:56:28.449Z,18.33
2022-12-10T00:58:55.587Z,18.10
2022-12-10T01:01:24.544Z,18.50
2022-12-10T01:03:52.848Z,18.37
2022-12-10T01:06:24.698Z,18.57
2022-12-10T01:08:52.770Z,18.23
2022-12-10T01:11:21.184Z,17.60
2022-12-10T01:13:49.241Z,18.50
2022-12-10T01:16:18.505Z,17.43
2022-12-10T01:18:45.926Z,17.93
2022-12-10T01:21:14.470Z,18.20
2022-12-10T01:23:42.228Z,18.77
2022-12-10T01:26:11.697Z,18.17
2022-12-10T01:28:39.489Z,18.77
2022-12-10T01:31:11.284Z,18.73
2022-12-10T01:33:39.077Z,18.03
2022-12-10T01:36:08.496Z,19.07
2022-12-10T01:38:35.749Z,18.43
2022-12-10T01:41:03.052Z,19.07
2022-12-10T01:43:49.649Z,19.47
2022-12-10T01:46:16.798Z,19.80
2022-12-10T01:48:43.934Z,19.27
2022-12-10T01:51:12.385Z,19.03
2022-12-10T01:53:39.532Z,18.33
2022-12-10T01:56:06.802Z,19.27
2022-12-10T01:58:33.930Z,18.63
2022-12-10T02:01:05.969Z,17.47
2022-12-10T02:03:40.610Z,18.10
2022-12-10T02:06:30.743Z,18.13
2022-12-10T02:09:04.272Z,18.93
2022-12-10T02:11:34.684Z,17.87
2022-12-10T02:17:38.437Z,17.70
2022-12-10T02:20:05.556Z,16.83
2022-12-10T02:22:35.095Z,17.47
2022-12-10T02:25:02.910Z,18.23
2022-12-10T02:27:35.420Z,17.47
2022-12-10T02:30:03.216Z,18.87
2022-12-10T02:32:50.179Z,19.80
2022-12-10T02:35:20.557Z,20.27
2022-12-10T02:37:50.364Z,21.37
2022-12-10T02:40:20.410Z,21.10
2022-12-10T02:42:50.189Z,21.00
2022-12-10T02:45:17.960Z,20.40
2022-12-10T02:47:45.627Z,20.53
2022-12-10T02:50:14.092Z,21.10
2022-12-10T02:52:41.179Z,20.60
2022-12-10T02:55:12.028Z,19.63
2022-12-10T02:57:47.911Z,20.80
2022-12-10T03:00:19.635Z,21.13
2022-12-10T03:03:05.783Z,20.93
2022-12-10T03:05:45.227Z,21.30
2022-12-10T03:08:17.252Z,21.67
2022-12-10T03:10:54.560Z,21.37
2022-12-10T03:13:23.855Z,21.33
2022-12-10T03:15:52.319Z,21.57
2022-12-10T03:18:21.569Z,21.87
2022-12-10T03:20:49.442Z,22.30
2022-12-10T03:23:20.029Z,22.00
2022-12-10T03:25:49.681Z,23.23
2022-12-10T03:28:20.016Z,22.43
2022-12-10T03:30:47.536Z,22.57
2022-12-10T03:33:15.015Z,23.37
2022-12-10T03:35:42.439Z,22.67
2022-12-10T03:38:10.204Z,23.23
2022-12-10T03:40:37.577Z,24.23
2022-12-10T03:43:04.790Z,24.37
2022-12-10T03:45:32.048Z,26.30
2022-12-10T03:47:59.169Z,25.30
2022-12-10T03:50:26.450Z,25.17
2022-12-10T03:52:53.585Z,27.13
2022-12-10T03:55:20.754Z,25.70
2022-12-10T03:57:49.108Z,27.67
2022-12-10T04:00:16.358Z,26.57
2022-12-10T04:02:43.507Z,25.83
2022-12-10T04:05:10.759Z,26.97
2022-12-10T04:07:38.080Z,27.27
2022-12-10T04:10:05.827Z,25.73
2022-12-10T04:12:33.130Z,26.57
2022-12-10T04:15:19.061Z,26.40
2022-12-10T04:17:46.289Z,27.33
2022-12-10T04:20:31.940Z,28.13
2022-12-10T04:23:17.814Z,28.77
2022-12-10T04:26:03.791Z,29.93
2022-12-10T04:28:30.914Z,29.53
2022-12-10T04:30:58.035Z,29.03
2022-12-10T04:33:25.171Z,28.60
2022-12-10T04:35:52.264Z,26.37
2022-12-10T04:38:19.395Z,27.80
2022-12-10T04:40:46.492Z,28.30
2022-12-10T04:43:13.571Z,29.80
2022-12-10T04:45:40.694Z,28.17
2022-12-10T04:48:07.869Z,27.63
2022-12-10T04:50:35.011Z,27.30
2022-12-10T04:53:02.134Z,26.43
2022-12-10T04:55:29.255Z,25.53
2022-12-10T04:57:56.374Z,25.57
2022-12-10T05:00:23.488Z,25.13
2022-12-10T05:02:50.862Z,25.80
2022-12-10T05:05:18.041Z,26.67
2022-12-10T05:07:45.209Z,27.13
2022-12-10T05:10:12.397Z,26.10
2022-12-10T05:12:39.468Z,25.30
2022-12-10T05:15:06.879Z,24.97
2022-12-10T05:17:34.459Z,25.67
2022-12-10T05:20:01.563Z,24.37
2022-12-10T05:22:47.200Z,24.87
2022-12-10T05:25:14.306Z,25.73
2022-12-10T05:27:41.381Z,24.90
2022-12-10T05:30:09.371Z,24.47
2022-12-10T05:32:36.881Z,24.57
2022-12-10T05:35:04.875Z,24.93
2022-12-10T05:37:31.970Z,25.30
2022-12-10T05:39:59.063Z,24.60
2022-12-10T05:42:26.168Z,24.83
2022-12-10T05:44:53.302Z,24.53
2022-12-10T05:47:20.442Z,25.63
2022-12-10T05:49:52.300Z,24.57
2022-12-10T05:52:19.765Z,25.40
2022-12-10T05:54:46.969Z,24.77
2022-12-10T05:57:14.058Z,24.70
2022-12-10T05:59:41.195Z,24.03
2022-12-10T06:02:08.350Z,24.87
2022-12-10T06:04:35.538Z,24.33
2022-12-10T06:07:07.981Z,24.47
2022-12-10T06:09:38.050Z,23.40
2022-12-10T06:12:05.314Z,23.17
2022-12-10T06:14:32.509Z,23.80
2022-12-10T06:16:59.786Z,23.97
2022-12-10T06:19:26.855Z,24.30
2022-12-10T06:21:53.962Z,23.57
2022-12-10T06:24:21.064Z,24.40
2022-12-10T06:26:50.514Z,24.63
2022-12-10T06:29:19.721Z,24.83
2022-12-10T06:31:46.908Z,24.13
2022-12-10T06:34:14.078Z,24.83
2022-12-10T06:36:41.258Z,24.63
2022-12-10T06:39:08.334Z,25.53
2022-12-10T06:41:35.501Z,25.40
2022-12-10T06:44:02.642Z,25.30
2022-12-10T06:46:29.887Z,26.67
2022-12-10T06:48:57.234Z,25.13
2022-12-10T06:51:24.369Z,25.93
2022-12-10T06:53:51.512Z,26.50
2022-12-10T06:56:19.564Z,27.53
2022-12-10T06:58:47.155Z,26.07
2022-12-10T07:01:16.000Z,26.97
2022-12-10T07:03:43.445Z,27.20
2022-12-10T07:06:11.340Z,29.05
2022-12-10T07:08:39.011Z,27.47
2022-12-10T07:11:07.083Z,25.87
2022-12-10T07:13:34.197Z,26.07
2022-12-10T07:16:01.396Z,26.23
2022-12-10T07:18:29.092Z,26.77
2022-12-10T07:20:56.380Z,25.97
2022-12-10T07:23:23.551Z,26.27
2022-12-10T07:25:50.655Z,26.83
2022-12-10T07:28:17.823Z,26.87
2022-12-10T07:30:44.953Z,26.23
2022-12-10T07:33:12.041Z,26.47
2022-12-10T07:35:48.710Z,25.10
2022-12-10T07:38:16.267Z,26.70
2022-12-10T07:40:43.389Z,28.03
2022-12-10T07:43:10.499Z,26.03
2022-12-10T07:45:37.597Z,26.13
2022-12-10T07:48:04.827Z,26.40
2022-12-10T07:50:31.920Z,26.10
2022-12-10T07:52:59.017Z,30.87
2022-12-10T07:55:26.101Z,32.07
2022-12-10T07:57:53.201Z,32.23
2022-12-10T08:00:20.413Z,30.77
2022-12-10T08:02:47.579Z,30.07
2022-12-10T08:05:14.724Z,30.83
2022-12-10T08:07:42.122Z,29.17
2022-12-10T08:10:09.712Z,28.53
2022-12-10T08:12:36.997Z,27.63
2022-12-10T08:15:04.539Z,26.20
2022-12-10T08:17:31.653Z,22.50
2022-12-10T08:19:58.813Z,23.90
2022-12-10T08:22:25.973Z,23.93
2022-12-10T08:24:53.069Z,23.17
2022-12-10T08:27:20.190Z,22.17
2022-12-10T08:29:47.280Z,21.40
2022-12-10T08:32:14.627Z,21.37
2022-12-10T08:34:41.863Z,22.03
2022-12-10T08:37:12.200Z,21.17
2022-12-10T08:39:41.165Z,19.40
2022-12-10T08:42:08.316Z,19.63
2022-12-10T08:44:35.429Z,18.63
2022-12-10T08:47:02.565Z,19.33
2022-12-10T08:49:29.664Z,19.03
2022-12-10T08:51:56.790Z,18.67
2022-12-10T08:54:23.893Z,18.57
2022-12-10T08:56:51.124Z,17.87
2022-12-10T08:59:18.550Z,16.67
2022-12-10T09:01:45.711Z,16.90
2022-12-10T09:04:13.698Z,16.73
2022-12-10T09:06:40.879Z,18.10
2022-12-10T09:09:07.976Z,18.30
2022-12-10T09:11:35.877Z,17.77
2022-12-10T09:14:03.339Z,17.73
2022-12-10T09:16:31.952Z,17.53
2022-12-10T09:18:59.395Z,16.67
2022-12-10T09:21:26.563Z,16.80
2022-12-10T09:23:53.652Z,16.33
2022-12-10T09:26:21.821Z,17.27
2022-12-10T09:28:48.993Z,16.13
2022-12-10T09:31:20.326Z,20.40
2022-12-10T09:33:49.128Z,17.30
2022-12-10T09:36:16.308Z,17.57
2022-12-10T09:38:44.468Z,15.27
2022-12-10T09:41:30.293Z,18.60
2022-12-10T09:43:57.508Z,15.97
2022-12-10T09:46:42.447Z,16.67
2022-12-10T09:49:14.706Z,18.73
2022-12-10T09:51:41.817Z,16.73
2022-12-10T09:54:27.518Z,15.63
2022-12-10T09:56:55.923Z,15.97
2022-12-10T09:59:40.279Z,17.30
2022-12-10T10:02:13.403Z,16.53
2022-12-10T10:04:40.583Z,15.93
2022-12-10T10:07:07.893Z,14.17
2022-12-10T10:09:40.216Z,14.87
2022-12-10T10:12:17.184Z,13.57
2022-12-10T10:14:45.689Z,16.83
2022-12-10T10:17:33.498Z,15.00
2022-12-10T10:20:00.702Z,14.73
2022-12-10T10:22:27.909Z,13.77
2022-12-10T10:24:55.300Z,14.23
2022-12-10T10:27:23.851Z,14.87
2022-12-10T10:29:57.667Z,15.03
2022-12-10T10:32:26.700Z,15.67
2022-12-10T10:34:57.655Z,14.73
2022-12-10T10:37:29.924Z,12.20
2022-12-10T10:39:57.318Z,13.27
2022-12-10T10:42:29.785Z,13.40
2022-12-10T10:44:56.963Z,14.50
2022-12-10T10:47:34.024Z,13.53
2022-12-10T10:50:02.340Z,13.10
2022-12-10T10:52:31.219Z,12.83
2022-12-10T10:54:58.310Z,16.13
2022-12-10T10:57:38.569Z,14.33
2022-12-10T11:00:19.165Z,13.43
2022-12-10T11:02:46.385Z,14.53
2022-12-10T11:05:19.694Z,13.80
2022-12-10T11:07:46.912Z,14.13
2022-12-10T11:10:18.803Z,15.47
2022-12-10T11:12:46.875Z,15.13
2022-12-10T11:15:30.201Z,15.30
2022-12-10T11:17:57.732Z,14.20
2022-12-10T11:20:26.490Z,13.50
2022-12-10T11:23:04.074Z,12.73
2022-12-10T11:25:46.168Z,14.03
2022-12-10T11:28:16.099Z,13.80
2022-12-10T11:30:48.031Z,13.90
2022-12-10T11:33:28.983Z,15.07
2022-12-10T11:36:03.172Z,14.80
2022-12-10T11:38:32.367Z,15.57
2022-12-10T11:41:02.531Z,13.83
2022-12-10T11:43:38.661Z,13.17
2022-12-10T11:46:23.902Z,14.37
2022-12-10T11:49:11.199Z,13.50
2022-12-10T11:52:01.446Z,13.60
2022-12-10T11:54:31.502Z,13.47
2022-12-10T11:57:19.048Z,13.10
2022-12-10T12:00:06.140Z,13.73
2022-12-10T12:02:42.743Z,14.07
2022-12-10T12:05:16.307Z,12.97
2022-12-10T12:07:55.800Z,13.13
2022-12-10T12:10:26.042Z,12.77
2022-12-10T12:12:58.848Z,14.27
2022-12-10T12:15:49.269Z,14.70
2022-12-10T12:18:24.864Z,19.70
2022-12-10T12:20:55.493Z,24.50
2022-12-10T12:23:22.591Z,17.87
2022-12-10T12:25:54.869Z,17.30
2022-12-10T12:28:24.216Z,17.50
2022-12-10T12:31:06.379Z,15.83
2022-12-10T12:33:44.463Z,14.93
2022-12-10T12:36:31.880Z,18.13
2022-12-10T12:39:02.508Z,16.60
2022-12-10T12:41:36.712Z,17.93
2022-12-10T12:44:14.506Z,18.60
2022-12-10T12:46:46.445Z,17.23
2022-12-10T12:49:19.679Z,15.93
2022-12-10T12:51:56.078Z,14.80
2022-12-10T12:54:23.260Z,13.47
2022-12-10T12:57:13.020Z,12.93
2022-12-10T12:59:59.055Z,13.00
2022-12-10T13:02:26.231Z,13.60
2022-12-10T13:04:53.812Z,13.03
2022-12-10T13:07:20.926Z,12.90
2022-12-10T13:09:49.251Z,13.40
2022-12-10T13:12:16.410Z,17.90
2022-12-10T13:15:03.856Z,16.10
2022-12-10T13:17:35.355Z,14.03
2022-12-10T13:20:21.259Z,14.23
2022-12-10T13:23:01.605Z,13.40
2022-12-10T13:25:56.880Z,16.23
2022-12-10T13:28:28.785Z,11.83
2022-12-10T13:31:08.168Z,17.63
2022-12-10T13:33:49.196Z,16.03
2022-12-10T13:36:21.175Z,13.60
2022-12-10T13:39:06.502Z,14.70
2022-12-10T13:41:58.820Z,18.80
2022-12-10T13:44:45.118Z,17.43
2022-12-10T13:47:12.197Z,17.20
2022-12-10T13:49:50.104Z,19.30
2022-12-10T13:52:20.180Z,16.30
2022-12-10T13:54:54.188Z,14.73
2022-12-10T13:57:39.875Z,14.90
2022-12-10T14:00:15.604Z,17.60
2022-12-10T14:03:05.876Z,18.40
2022-12-10T14:05:48.323Z,18.33
2022-12-10T14:08:19.451Z,17.87
2022-12-10T14:10:46.841Z,13.10
2022-12-10T14:13:16.902Z,13.93
2022-12-10T14:15:48.419Z,11.13
2022-12-10T14:18:18.073Z,10.77
2022-12-10T14:20:47.207Z,10.17
2022-12-10T14:23:41.093Z,9.73
2022-12-10T14:26:22.160Z,9.00
2022-12-10T14:28:57.384Z,9.67
2022-12-10T14:31:32.940Z,12.23
2022-12-10T14:34:05.923Z,14.07
2022-12-10T14:36:34.519Z,12.67
2022-12-10T14:39:01.980Z,13.40
2022-12-10T14:41:36.020Z,11.93
2022-12-10T14:44:06.451Z,12.53
2022-12-10T14:46:33.766Z,14.47
2022-12-10T14:49:01.063Z,15.87
2022-12-10T14:51:33.536Z,15.80
2022-12-10T14:54:00.609Z,15.30
2022-12-10T14:56:30.119Z,16.43
2022-12-10T14:59:04.071Z,27.40
2022-12-10T15:01:32.744Z,28.50
2022-12-10T15:04:01.460Z,27.33
2022-12-10T15:06:29.195Z,31.53
2022-12-10T15:08:57.771Z,34.97
2022-12-10T15:11:25.834Z,33.77
2022-12-10T15:13:58.427Z,45.40
2022-12-10T15:16:31.934Z,33.60
2022-12-10T15:19:08.586Z,34.87
2022-12-10T15:21:42.163Z,28.57
2022-12-10T15:24:14.885Z,27.30
2022-12-10T15:26:43.859Z,25.63
2022-12-10T15:29:27.443Z,26.87
2022-12-10T15:32:15.299Z,22.50
2022-12-10T15:34:49.670Z,22.73
2022-12-10T15:37:22.666Z,21.73
2022-12-10T15:39:57.125Z,18.30
2022-12-10T15:42:30.316Z,17.20
2022-12-10T15:44:59.841Z,19.20
2022-12-10T15:47:27.635Z,19.17
2022-12-10T15:49:55.492Z,19.53
2022-12-10T15:52:22.626Z,21.47
2022-12-10T15:54:50.842Z,20.73
2022-12-10T15:57:19.597Z,22.37
2022-12-10T15:59:48.036Z,24.00
2022-12-10T16:02:24.280Z,22.40
2022-12-10T16:04:51.424Z,21.33
2022-12-10T16:07:18.799Z,22.70
2022-12-10T16:09:46.275Z,21.57
2022-12-10T16:12:17.414Z,21.47
2022-12-10T16:14:49.206Z,22.17
2022-12-10T16:17:16.433Z,21.90
2022-12-10T16:19:44.392Z,24.50
2022-12-10T16:22:11.477Z,24.37
2022-12-10T16:24:42.121Z,23.00
2022-12-10T16:27:15.952Z,22.53
2022-12-10T16:29:43.827Z,23.40
2022-12-10T16:32:11.565Z,26.77
2022-12-10T16:34:39.087Z,27.40
2022-12-10T16:37:07.029Z,24.00
2022-12-10T16:39:34.805Z,26.07
2022-12-10T16:42:01.990Z,22.37
2022-12-10T16:44:29.110Z,19.40
2022-12-10T16:46:56.188Z,21.10
2022-12-10T16:49:23.377Z,19.43
2022-12-10T16:51:50.952Z,18.80
2022-12-10T16:54:18.065Z,19.40
2022-12-10T16:56:46.681Z,17.97
2022-12-10T16:59:13.949Z,18.10
2022-12-10T17:01:41.048Z,17.87
2022-12-10T17:04:10.662Z,19.60
2022-12-10T17:06:37.855Z,20.13
2022-12-10T17:09:05.257Z,17.80
2022-12-10T17:11:49.100Z,19.50
2022-12-10T17:14:23.731Z,19.00
2022-12-10T17:16:51.734Z,19.00
2022-12-10T17:19:19.266Z,19.43
2022-12-10T17:21:46.865Z,19.23
2022-12-10T17:24:13.976Z,20.23
2022-12-10T17:26:46.537Z,23.10
2022-12-10T17:29:32.210Z,25.30
2022-12-10T17:31:59.454Z,28.87
2022-12-10T17:34:26.660Z,30.43
2022-12-10T17:36:53.842Z,32.53
2022-12-10T17:39:22.989Z,29.70
2022-12-10T17:41:50.562Z,29.43
2022-12-10T17:44:17.827Z,28.63
2022-12-10T17:46:44.983Z,26.70
2022-12-10T17:49:16.224Z,24.23
2022-12-10T17:51:43.796Z,23.33
2022-12-10T17:54:10.939Z,27.37
2022-12-10T17:56:38.968Z,26.87
2022-12-10T17:59:06.354Z,28.23
2022-12-10T18:01:34.648Z,27.93
2022-12-10T18:04:01.775Z,28.73
2022-12-10T18:06:30.903Z,29.77
2022-12-10T18:08:59.692Z,29.47
2022-12-10T18:11:31.551Z,28.87
2022-12-10T18:13:58.691Z,25.67
2022-12-10T18:16:29.877Z,28.67
2022-12-10T18:18:58.171Z,32.07
2022-12-10T18:21:26.368Z,33.10
2022-12-10T18:23:53.524Z,41.83
2022-12-10T18:26:22.417Z,41.90
2022-12-10T18:28:59.806Z,40.40
2022-12-10T18:31:28.901Z,39.03
2022-12-10T18:33:59.710Z,37.27
2022-12-10T18:36:29.842Z,35.47
2022-12-10T18:38:57.782Z,38.73
2022-12-10T18:41:25.042Z,36.77
2022-12-10T18:43:52.472Z,35.57
2022-12-10T18:46:21.511Z,34.67
2022-12-10T18:48:48.725Z,34.30
2022-12-10T18:51:16.375Z,31.00
2022-12-10T18:53:44.672Z,27.70
2022-12-10T18:56:14.272Z,26.47
2022-12-10T18:58:41.551Z,29.77
2022-12-10T19:01:09.253Z,30.83
2022-12-10T19:03:36.815Z,32.50
2022-12-10T19:06:04.002Z,33.63
2022-12-10T19:08:32.599Z,32.70
2022-12-10T19:11:04.167Z,36.13
2022-12-10T19:13:31.280Z,41.33
2022-12-10T19:15:59.371Z,39.33
2022-12-10T19:18:26.718Z,37.47
2022-12-10T19:20:57.424Z,37.53
2022-12-10T19:23:24.764Z,40.27
2022-12-10T19:25:51.895Z,35.77
2022-12-10T19:28:19.852Z,37.37
2022-12-10T19:30:47.244Z,31.30
2022-12-10T19:33:14.394Z,33.53
2022-12-10T19:35:41.586Z,39.70
2022-12-10T19:38:11.793Z,37.67
2022-12-10T19:40:38.948Z,34.20
2022-12-10T19:43:10.376Z,32.90
2022-12-10T19:45:39.996Z,29.07
2022-12-10T19:48:07.398Z,27.20
2022-12-10T19:50:38.770Z,31.97
2022-12-10T19:53:05.961Z,30.93
2022-12-10T19:55:33.447Z,31.00
2022-12-10T19:58:00.663Z,30.23
2022-12-10T20:00:29.330Z,26.43
2022-12-10T20:02:56.796Z,27.60
2022-12-10T20:05:24.055Z,27.83
2022-12-10T20:07:51.440Z,26.50
2022-12-10T20:10:26.200Z,26.73
2022-12-10T20:12:53.749Z,26.17
2022-12-10T20:15:21.840Z,24.53
2022-12-10T20:17:49.282Z,24.17
2022-12-10T20:20:24.027Z,24.10
2022-12-10T20:22:51.616Z,25.07
2022-12-10T20:25:19.247Z,23.17
2022-12-10T20:27:46.903Z,25.23
2022-12-10T20:30:32.168Z,25.13
2022-12-10T20:33:11.978Z,23.73
2022-12-10T20:35:46.738Z,23.53
2022-12-10T20:38:13.926Z,23.60
2022-12-10T20:40:41.041Z,25.00
2022-12-10T20:43:08.160Z,25.17
2022-12-10T20:45:35.431Z,24.07
2022-12-10T20:48:02.527Z,23.73
2022-12-10T20:50:29.631Z,24.60
2022-12-10T20:52:56.807Z,24.73
2022-12-10T20:55:23.952Z,28.47
2022-12-10T20:57:51.051Z,33.37
2022-12-10T21:00:19.036Z,39.87
2022-12-10T21:02:46.265Z,36.67
2022-12-10T21:05:14.253Z,32.67
2022-12-10T21:07:41.764Z,34.20
2022-12-10T21:10:29.189Z,31.57
2022-12-10T21:12:56.300Z,28.57
2022-12-10T21:15:24.161Z,28.10
2022-12-10T21:17:51.458Z,28.77
2022-12-10T21:20:21.697Z,29.07
2022-12-10T21:22:51.487Z,28.40
2022-12-10T21:25:19.168Z,32.33
2022-12-10T21:27:46.340Z,34.03
2022-12-10T21:30:13.810Z,30.93
2022-12-10T21:32:41.019Z,26.43
2022-12-10T21:35:08.591Z,24.63
2022-12-10T21:37:35.989Z,24.70
2022-12-10T21:40:03.239Z,26.13
2022-12-10T21:42:49.211Z,27.67
2022-12-10T21:45:16.323Z,31.40
2022-12-10T21:47:43.747Z,31.80
2022-12-10T21:50:10.876Z,30.70
2022-12-10T21:52:39.122Z,31.03
2022-12-10T21:55:06.770Z,30.37
2022-12-10T21:57:33.983Z,29.83
2022-12-10T22:00:01.091Z,29.60
2022-12-10T22:02:28.325Z,27.57
2022-12-10T22:04:55.501Z,26.90
2022-12-10T22:07:24.639Z,26.20
2022-12-10T22:09:51.747Z,25.67
2022-12-10T22:12:18.855Z,24.03
2022-12-10T22:14:45.963Z,23.60
2022-12-10T22:17:14.320Z,23.83
2022-12-10T22:19:42.250Z,23.77
2022-12-10T22:22:09.368Z,25.93
2022-12-10T22:24:36.567Z,24.93
2022-12-10T22:27:03.791Z,25.80
2022-12-10T22:29:31.071Z,26.60
2022-12-10T22:31:58.194Z,26.53
2022-12-10T22:34:25.315Z,26.47
2022-12-10T22:36:52.415Z,26.43
2022-12-10T22:39:20.242Z,25.93
2022-12-10T22:41:47.340Z,24.97
2022-12-10T22:44:14.574Z,23.60
2022-12-10T22:46:42.503Z,23.87
2022-12-10T22:49:09.667Z,23.40
2022-12-10T22:51:36.779Z,22.03
2022-12-10T22:54:03.942Z,22.33
2022-12-10T22:56:31.215Z,22.43
2022-12-10T22:58:58.912Z,22.90
2022-12-10T23:01:27.047Z,22.37
2022-12-10T23:03:55.105Z,22.20
2022-12-10T23:06:22.758Z,20.90
2022-12-10T23:08:50.237Z,20.93
2022-12-10T23:11:17.367Z,21.37
2022-12-10T23:13:44.873Z,21.00
2022-12-10T23:16:13.722Z,20.83
2022-12-10T23:18:42.508Z,21.60
2022-12-10T23:21:20.615Z,20.53
2022-12-10T23:23:47.735Z,21.07
2022-12-10T23:26:14.866Z,21.07
2022-12-10T23:28:42.159Z,20.90
2022-12-10T23:31:10.938Z,21.13
2022-12-10T23:33:38.692Z,21.97
2022-12-10T23:36:06.897Z,21.47
2022-12-10T23:38:34.038Z,20.70
2022-12-10T23:41:01.208Z,21.47
2022-12-10T23:43:28.298Z,21.20
2022-12-10T23:45:55.513Z,19.73
2022-12-10T23:48:22.701Z,19.20
2022-12-10T23:50:49.882Z,19.07
2022-12-10T23:53:17.002Z,19.77
2022-12-10T23:55:44.716Z,19.77
2022-12-10T23:58:11.814Z,20.80
